Time;durP1;ratioP1;P1;durP2;ratioP2;P2;SDS_P1;SDS_P2;PMS_P1;PMS_P2;Temp;Humidity;BMP_temperature;BMP_pressure;BME280_temperature;BME280_humidity;BME280_pressure;Samples;Min_cycle;Max_cycle;Signal;HPM_P1;HPM_P2
2022/03/14 00:00:24;;;;;;;73.20;37.37;;;;;;;-1.16;100.00;101526.53;1562690;91;21135;-70
2022/03/14 00:02:51;;;;;;;69.00;36.10;;;;;;;-1.15;100.00;101526.48;1583047;89;21080;-70
2022/03/14 00:05:19;;;;;;;67.93;33.23;;;;;;;-1.15;100.00;101529.13;1582960;91;21084;-70
2022/03/14 00:07:46;;;;;;;62.13;33.40;;;;;;;-1.15;100.00;101521.17;1562547;91;21136;-70
2022/03/14 00:10:16;;;;;;;69.37;35.07;;;;;;;-1.12;100.00;101520.64;1583004;89;21063;-70
2022/03/14 00:12:48;;;;;;;62.53;33.27;;;;;;;-1.11;100.00;101513.09;1583059;89;21095;-70
2022/03/14 00:15:16;;;;;;;64.13;32.73;;;;;;;-1.10;100.00;101516.13;1582938;91;21092;-69
2022/03/14 00:17:45;;;;;;;60.27;31.67;;;;;;;-1.10;100.00;101517.45;1639184;86;21038;-70
2022/03/14 00:20:15;;;;;;;65.27;30.87;;;;;;;-1.09;100.00;101520.05;1673480;85;21102;-70
2022/03/14 00:22:45;;;;;;;56.33;29.20;;;;;;;-1.09;100.00;101520.05;1673579;85;21076;-70
2022/03/14 00:25:12;;;;;;;58.10;30.33;;;;;;;-1.08;100.00;101512.95;1673395;86;21132;-69
2022/03/14 00:27:39;;;;;;;55.40;28.57;;;;;;;-1.08;100.00;101513.84;1673806;86;21019;-69
2022/03/14 00:30:10;;;;;;;60.53;28.80;;;;;;;-1.08;100.00;101506.31;1673321;85;21039;-70
2022/03/14 00:32:39;;;;;;;54.80;27.70;;;;;;;-1.08;100.00;101508.97;1673649;85;21087;-69
2022/03/14 00:35:16;;;;;;;55.17;27.47;;;;;;;-1.06;100.00;101506.67;1692241;84;21051;-70
2022/03/14 00:37:44;;;;;;;54.73;27.60;;;;;;;-1.06;100.00;101506.67;1673930;86;21110;-70
2022/03/14 00:40:12;;;;;;;49.83;24.40;;;;;;;-1.07;100.00;101508.91;1673500;86;21071;-70
2022/03/14 00:42:41;;;;;;;47.53;24.47;;;;;;;-1.09;100.00;101509.44;1673533;85;21070;-69
2022/03/14 00:45:09;;;;;;;47.50;25.50;;;;;;;-1.10;100.00;101511.67;1692366;84;21114;-69
2022/03/14 00:47:37;;;;;;;45.13;25.03;;;;;;;-1.10;100.00;101511.67;1673392;84;21114;-70
2022/03/14 00:50:06;;;;;;;43.83;23.97;;;;;;;-1.09;100.00;101509.91;1673815;86;21035;-70
2022/03/14 00:52:33;;;;;;;44.47;23.67;;;;;;;-1.09;100.00;101508.58;1673640;86;21094;-69
2022/03/14 00:55:00;;;;;;;38.80;21.73;;;;;;;-1.08;100.00;101509.85;1673612;86;21067;-71
2022/03/14 00:57:27;;;;;;;38.40;21.13;;;;;;;-1.07;100.00;101510.23;1673379;85;21015;-69
2022/03/14 00:59:57;;;;;;;37.87;19.97;;;;;;;-1.08;100.00;101511.63;1673515;85;21079;-71
2022/03/14 01:02:26;;;;;;;36.17;19.60;;;;;;;-1.08;100.00;101511.63;1673407;85;21151;-69
2022/03/14 01:04:53;;;;;;;37.77;19.03;;;;;;;-1.10;100.00;101518.31;1692481;84;21524;-70
2022/03/14 01:07:21;;;;;;;35.67;18.07;;;;;;;-1.13;100.00;101523.77;1673392;85;21572;-69
2022/03/14 01:09:48;;;;;;;39.00;18.77;;;;;;;-1.15;100.00;101523.82;1673380;85;21012;-69
2022/03/14 01:12:17;;;;;;;35.13;18.47;;;;;;;-1.17;100.00;101519.04;1673376;85;21652;-69
2022/03/14 01:14:45;;;;;;;36.73;19.40;;;;;;;-1.17;100.00;101526.11;1673438;85;21516;-69
2022/03/14 01:17:12;;;;;;;42.23;21.97;;;;;;;-1.19;100.00;101528.86;1702455;84;21041;-70
2022/03/14 01:19:41;;;;;;;38.27;19.93;;;;;;;-1.21;100.00;101528.49;1693004;84;21503;-70
2022/03/14 01:22:10;;;;;;;35.20;19.63;;;;;;;-1.23;100.00;101531.20;1711227;84;21081;-70
2022/03/14 01:24:38;;;;;;;35.87;19.13;;;;;;;-1.24;100.00;101528.17;1710949;83;21090;-70
2022/03/14 01:27:06;;;;;;;38.13;19.53;;;;;;;-1.26;100.00;101523.82;1711292;84;21048;-69
2022/03/14 01:32:04;;;;;;;36.43;18.67;;;;;;;-1.29;100.00;101529.23;1675913;86;21132;-69
2022/03/14 01:34:31;;;;;;;33.63;17.20;;;;;;;-1.31;100.00;101526.67;1643091;87;21113;-69
2022/03/14 01:36:59;;;;;;;30.47;16.00;;;;;;;-1.31;100.00;101529.33;1613460;89;21094;-68
2022/03/14 01:39:26;;;;;;;30.57;16.50;;;;;;;-1.31;100.00;101531.09;1644732;87;21105;-70
2022/03/14 01:41:55;;;;;;;31.13;16.80;;;;;;;-1.31;100.00;101530.66;1612511;89;21560;-70
2022/03/14 01:44:23;;;;;;;37.20;19.37;;;;;;;-1.31;100.00;101528.44;1643420;87;21522;-70
2022/03/14 01:46:50;;;;;;;33.03;16.17;;;;;;;-1.30;100.00;101536.81;1612064;89;21072;-70
2022/03/14 01:49:18;;;;;;;32.90;16.47;;;;;;;-1.33;100.00;101536.45;1643510;87;21510;-69
2022/03/14 01:51:45;;;;;;;29.33;15.13;;;;;;;-1.36;100.00;101536.59;1612270;89;21091;-70
2022/03/14 01:54:12;;;;;;;28.90;15.20;;;;;;;-1.38;100.00;101532.66;1643269;87;21108;-70
2022/03/14 01:56:40;;;;;;;29.67;15.87;;;;;;;-1.38;100.00;101539.73;1612249;89;21107;-69
2022/03/14 01:59:08;;;;;;;29.40;14.00;;;;;;;-1.40;100.00;101533.19;1643424;84;21121;-70
2022/03/14 02:01:35;;;;;;;27.77;14.63;;;;;;;-1.41;100.00;101536.75;1612315;89;21044;-69
2022/03/14 02:04:03;;;;;;;27.80;14.13;;;;;;;-1.43;100.00;101535.09;1636979;87;21126;-70
2022/03/14 02:06:32;;;;;;;28.93;14.90;;;;;;;-1.43;100.00;101538.61;1592613;90;21075;-68
2022/03/14 02:09:00;;;;;;;28.13;14.53;;;;;;;-1.45;100.00;101535.59;1629219;88;21119;-69
2022/03/14 02:11:27;;;;;;;28.17;14.73;;;;;;;-1.48;100.00;101539.70;1595653;89;21085;-70
2022/03/14 02:13:55;;;;;;;27.43;14.73;;;;;;;-1.50;100.00;101537.58;1614734;89;21079;-69
2022/03/14 02:16:23;;;;;;;27.13;15.07;;;;;;;-1.52;100.00;101540.28;1604598;89;21655;-69
2022/03/14 02:18:58;;;;;;;29.17;15.97;;;;;;;-1.53;100.00;101535.88;1592286;90;21537;-70
2022/03/14 02:21:25;;;;;;;26.23;14.60;;;;;;;-1.55;100.00;101543.89;1592176;90;21085;-69
2022/03/14 02:23:52;;;;;;;26.70;14.60;;;;;;;-1.58;100.00;101538.69;1592257;90;21096;-70
2022/03/14 02:26:21;;;;;;;28.47;14.50;;;;;;;-1.58;100.00;101534.72;1592338;90;21582;-69
2022/03/14 02:28:48;;;;;;;27.70;14.50;;;;;;;-1.57;100.00;101536.92;1596147;90;21070;-69
2022/03/14 02:31:15;;;;;;;31.90;16.60;;;;;;;-1.56;100.00;101535.55;1644608;86;21050;-70
2022/03/14 02:33:43;;;;;;;34.83;17.30;;;;;;;-1.54;100.00;101528.83;1615519;89;21085;-69
2022/03/14 02:36:10;;;;;;;33.07;17.60;;;;;;;-1.53;100.00;101524.80;1646817;87;21141;-69
2022/03/14 02:38:39;;;;;;;37.83;17.90;;;;;;;-1.49;100.00;101532.66;1674786;85;21074;-70
2022/03/14 02:41:06;;;;;;;29.50;16.20;;;;;;;-1.48;100.00;101524.64;1647032;87;21069;-70
2022/03/14 02:43:35;;;;;;;29.63;15.70;;;;;;;-1.47;100.00;101524.17;1647323;87;21070;-70
2022/03/14 02:46:03;;;;;;;29.87;16.30;;;;;;;-1.47;100.00;101525.50;1647226;86;21076;-69
2022/03/14 02:48:30;;;;;;;36.03;16.73;;;;;;;-1.48;100.00;101525.97;1674958;85;21546;-69
2022/03/14 02:50:58;;;;;;;30.30;15.77;;;;;;;-1.49;100.00;101526.02;1647217;87;21113;-70
2022/03/14 02:53:24;;;;;;;27.70;14.30;;;;;;;-1.50;100.00;101527.81;1647061;87;21073;-69
2022/03/14 02:55:52;;;;;;;22.20;11.47;;;;;;;-1.51;100.00;101534.50;1647261;87;21038;-69
2022/03/14 02:58:20;;;;;;;24.70;11.40;;;;;;;-1.50;100.00;101531.80;1674376;85;21566;-69
2022/03/14 03:00:50;;;;;;;20.43;9.67;;;;;;;-1.48;100.00;101535.73;1675312;85;21077;-69
2022/03/14 03:03:17;;;;;;;22.90;11.17;;;;;;;-1.47;100.00;101539.66;1615276;86;21049;-69
2022/03/14 03:05:45;;;;;;;29.40;14.53;;;;;;;-1.46;100.00;101540.51;1637861;88;21086;-70
2022/03/14 03:08:12;;;;;;;27.77;13.80;;;;;;;-1.49;100.00;101538.81;1642592;87;21439;-69
2022/03/14 03:10:42;;;;;;;28.00;13.70;;;;;;;-1.51;100.00;101540.66;1613289;89;21515;-70
2022/03/14 03:13:10;;;;;;;25.50;12.20;;;;;;;-1.54;100.00;101538.12;1650438;87;21105;-69
2022/03/14 03:15:38;;;;;;;25.10;12.10;;;;;;;-1.57;100.00;101539.11;1682553;84;21611;-70
2022/03/14 03:18:06;;;;;;;28.40;12.77;;;;;;;-1.60;100.00;101538.36;1684481;84;21023;-70
2022/03/14 03:20:33;;;;;;;28.90;14.50;;;;;;;-1.62;100.00;101534.43;1684575;84;21559;-70
2022/03/14 03:23:02;;;;;;;28.10;14.00;;;;;;;-1.60;100.00;101535.70;1710853;84;21488;-70
2022/03/14 03:25:29;;;;;;;27.53;13.70;;;;;;;-1.60;100.00;101533.05;1690396;83;21069;-69
2022/03/14 03:27:56;;;;;;;27.40;12.77;;;;;;;-1.61;100.00;101532.20;1720055;83;21535;-70
2022/03/14 03:30:23;;;;;;;23.90;12.07;;;;;;;-1.63;100.00;101527.85;1718082;83;21046;-69
2022/03/14 03:32:51;;;;;;;26.63;13.07;;;;;;;-1.65;100.00;101525.25;1718304;83;21014;-70
2022/03/14 03:35:18;;;;;;;28.20;14.03;;;;;;;-1.67;100.00;101524.45;1689609;83;21062;-70
2022/03/14 03:37:46;;;;;;;29.93;13.90;;;;;;;-1.66;100.00;101522.22;1690222;83;21518;-70
2022/03/14 03:40:13;;;;;;;26.27;13.07;;;;;;;-1.67;100.00;101522.27;1718178;83;21097;-69
2022/03/14 03:42:42;;;;;;;30.27;14.43;;;;;;;-1.68;100.00;101524.50;1718075;83;21038;-69
2022/03/14 03:45:10;;;;;;;27.53;13.23;;;;;;;-1.67;100.00;101524.92;1718001;83;21054;-70
2022/03/14 03:47:38;;;;;;;24.67;12.30;;;;;;;-1.68;100.00;101521.84;1690283;83;21035;-70
2022/03/14 03:50:07;;;;;;;23.67;12.17;;;;;;;-1.68;100.00;101516.55;1689838;83;21010;-70
2022/03/14 03:52:35;;;;;;;24.50;12.07;;;;;;;-1.68;100.00;101515.22;1718153;83;21042;-70
2022/03/14 03:55:03;;;;;;;24.97;12.07;;;;;;;-1.66;100.00;101510.75;1718174;83;21042;-70
2022/03/14 03:57:31;;;;;;;31.53;13.43;;;;;;;-1.67;100.00;101501.91;1689928;83;20999;-69
2022/03/14 03:59:59;;;;;;;25.37;13.10;;;;;;;-1.66;100.00;101503.65;1717968;83;21065;-70
2022/03/14 04:02:26;;;;;;;26.33;13.30;;;;;;;-1.66;100.00;101506.30;1690177;83;21027;-69
2022/03/14 04:04:53;;;;;;;28.53;13.60;;;;;;;-1.65;100.00;101495.22;1717972;83;21058;-69
2022/03/14 04:07:23;;;;;;;27.17;13.40;;;;;;;-1.66;100.00;101500.14;1717848;83;21058;-68
2022/03/14 04:09:55;;;;;;;26.23;13.37;;;;;;;-1.67;100.00;101506.35;1718104;83;21073;-70
2022/03/14 04:12:22;;;;;;;25.70;12.77;;;;;;;-1.70;100.00;101509.97;1714466;83;21087;-70
2022/03/14 04:14:51;;;;;;;28.93;14.30;;;;;;;-1.70;100.00;101503.80;1689888;83;21543;-70
2022/03/14 04:17:19;;;;;;;29.70;14.47;;;;;;;-1.71;100.00;101513.55;1718031;83;21531;-70
2022/03/14 04:19:48;;;;;;;27.80;14.40;;;;;;;-1.70;100.00;101514.41;1689599;83;21081;-71
2022/03/14 04:22:15;;;;;;;29.00;13.57;;;;;;;-1.69;100.00;101513.50;1717780;83;21054;-70
2022/03/14 04:24:43;;;;;;;27.33;13.87;;;;;;;-1.68;100.00;101515.22;1718183;83;21057;-70
2022/03/14 04:27:10;;;;;;;28.03;13.90;;;;;;;-1.68;100.00;101513.45;1718032;83;21035;-70
2022/03/14 04:29:38;;;;;;;31.00;14.83;;;;;;;-1.67;100.00;101509.86;1718237;83;21109;-69
2022/03/14 04:32:06;;;;;;;27.37;13.00;;;;;;;-1.67;100.00;101515.64;1718211;83;21042;-70
2022/03/14 04:34:34;;;;;;;29.50;13.97;;;;;;;-1.67;100.00;101511.66;1718218;83;21038;-69
2022/03/14 04:37:01;;;;;;;32.03;15.43;;;;;;;-1.66;100.00;101514.26;1689858;83;21475;-70
2022/03/14 04:39:29;;;;;;;27.23;13.53;;;;;;;-1.65;100.00;101510.66;1685095;83;21041;-71
2022/03/14 04:41:56;;;;;;;31.70;14.27;;;;;;;-1.64;100.00;101514.20;1718358;83;21034;-70
2022/03/14 04:44:23;;;;;;;27.57;13.70;;;;;;;-1.65;100.00;101513.31;1717938;83;21046;-69
2022/03/14 04:46:51;;;;;;;26.93;13.37;;;;;;;-1.64;100.00;101503.59;1717926;83;21010;-70
2022/03/14 04:49:18;;;;;;;28.20;13.87;;;;;;;-1.64;100.00;101504.45;1717949;83;21062;-70
2022/03/14 04:51:50;;;;;;;24.50;13.00;;;;;;;-1.62;100.00;101501.74;1718051;83;21031;-70
2022/03/14 04:54:15;;;;;;;27.20;13.50;;;;;;;-1.60;100.00;101504.73;1714056;83;21082;-70
2022/03/14 04:56:42;;;;;;;28.07;13.80;;;;;;;-1.57;100.00;101503.77;1689809;83;21058;-69
2022/03/14 04:59:09;;;;;;;25.77;13.17;;;;;;;-1.56;100.00;101507.70;1689836;83;21050;-70
2022/03/14 05:01:37;;;;;;;27.17;12.83;;;;;;;-1.55;100.00;101508.08;1718056;83;21011;-70
2022/03/14 05:04:04;;;;;;;26.33;13.27;;;;;;;-1.54;100.00;101507.61;1690562;83;21058;-70
2022/03/14 05:06:33;;;;;;;24.77;13.33;;;;;;;-1.53;100.00;101508.88;1723333;83;21092;-70
2022/03/14 05:09:00;;;;;;;22.50;11.90;;;;;;;-1.53;100.00;101502.25;1723273;83;21061;-70
2022/03/14 05:11:29;;;;;;;25.27;12.57;;;;;;;-1.50;100.00;101508.39;1723554;83;20999;-69
2022/03/14 05:13:57;;;;;;;22.97;11.73;;;;;;;-1.51;100.00;101508.83;1697095;83;21061;-69
2022/03/14 05:16:25;;;;;;;22.70;12.10;;;;;;;-1.48;100.00;101509.20;1712605;83;20982;-69
2022/03/14 05:18:54;;;;;;;23.73;12.00;;;;;;;-1.45;100.00;101506.40;1695218;84;21032;-69
2022/03/14 05:21:21;;;;;;;23.50;11.80;;;;;;;-1.41;100.00;101505.38;1694501;85;21576;-71
2022/03/14 05:23:48;;;;;;;21.50;11.23;;;;;;;-1.37;100.00;101503.00;1694453;85;21103;-70
2022/03/14 05:26:16;;;;;;;22.80;10.77;;;;;;;-1.32;100.00;101506.35;1716193;83;21624;-69
2022/03/14 05:28:43;;;;;;;21.73;10.70;;;;;;;-1.26;100.00;101506.09;1715822;83;21086;-67
2022/03/14 05:31:10;;;;;;;21.57;10.07;;;;;;;-1.24;100.00;101506.94;1694642;85;21360;-70
2022/03/14 05:33:39;;;;;;;20.07;10.23;;;;;;;-1.24;100.00;101502.95;1715575;83;21115;-69
2022/03/14 05:36:06;;;;;;;21.47;10.33;;;;;;;-1.21;100.00;101512.09;1694415;85;21091;-69
2022/03/14 05:38:34;;;;;;;20.53;9.90;;;;;;;-1.18;100.00;101512.46;1694539;85;21512;-69
2022/03/14 05:41:01;;;;;;;19.53;9.97;;;;;;;-1.16;100.00;101515.91;1667744;85;21115;-69
2022/03/14 05:43:28;;;;;;;23.30;11.50;;;;;;;-1.16;100.00;101516.77;1667681;85;21573;-69
2022/03/14 05:45:55;;;;;;;19.20;9.70;;;;;;;-1.17;100.00;101531.42;1694944;85;21052;-69
2022/03/14 05:48:22;;;;;;;19.97;10.20;;;;;;;-1.15;100.00;101531.78;1694649;85;21383;-69
2022/03/14 05:50:50;;;;;;;22.57;10.50;;;;;;;-1.08;100.00;101532.42;1694745;85;21076;-68
2022/03/14 05:53:18;;;;;;;21.33;10.73;;;;;;;-1.04;100.00;101540.66;1694824;84;21118;-69
2022/03/14 05:55:46;;;;;;;19.57;10.20;;;;;;;-1.03;100.00;101542.37;1694867;85;21561;-67
2022/03/14 05:58:13;;;;;;;19.83;9.40;;;;;;;-1.01;100.00;101543.64;1694397;84;21083;-68
2022/03/14 06:00:41;;;;;;;21.30;10.13;;;;;;;-0.95;100.00;101544.74;1694761;85;21493;-68
2022/03/14 06:03:09;;;;;;;20.80;10.33;;;;;;;-0.88;100.00;101549.36;1694690;85;21063;-68
2022/03/14 06:05:36;;;;;;;21.60;11.67;;;;;;;-0.84;100.00;101547.83;1688241;85;21114;-70
2022/03/14 06:08:04;;;;;;;21.10;9.57;;;;;;;-0.82;100.00;101559.25;1685384;85;21063;-69
2022/03/14 06:10:33;;;;;;;36.17;18.87;;;;;;;-0.82;100.00;101561.91;1685160;84;21130;-68
2022/03/14 06:13:00;;;;;;;26.53;13.17;;;;;;;-0.81;100.00;101573.42;1685571;85;21046;-68
2022/03/14 06:15:28;;;;;;;23.17;11.47;;;;;;;-0.77;100.00;101571.03;1685164;85;21074;-70
2022/03/14 06:17:55;;;;;;;18.77;9.53;;;;;;;-0.73;100.00;101575.77;1682712;85;21056;-67
2022/03/14 06:20:22;;;;;;;17.70;8.87;;;;;;;-0.68;100.00;101583.09;1678053;84;21415;-69
2022/03/14 06:22:50;;;;;;;17.73;8.47;;;;;;;-0.68;100.00;101585.27;1682806;85;21044;-68
2022/03/14 06:25:17;;;;;;;17.87;8.63;;;;;;;-0.71;100.00;101590.70;1678026;85;21032;-68
2022/03/14 06:27:45;;;;;;;19.63;8.30;;;;;;;-0.68;100.00;101593.72;1682740;85;20997;-69
2022/03/14 06:30:13;;;;;;;18.57;9.17;;;;;;;-0.67;100.00;101595.46;1682069;85;21060;-69
2022/03/14 06:32:41;;;;;;;18.20;8.77;;;;;;;-0.61;100.00;101597.86;1677574;84;21083;-68
2022/03/14 06:35:12;;;;;;;19.37;8.90;;;;;;;-0.56;100.00;101594.56;1682800;85;21035;-68
2022/03/14 06:37:40;;;;;;;15.57;7.50;;;;;;;-0.53;100.00;101595.77;1661254;85;21081;-68
2022/03/14 06:40:07;;;;;;;15.50;7.70;;;;;;;-0.50;100.00;101595.63;1648646;87;21041;-68
2022/03/14 06:42:39;;;;;;;19.63;9.80;;;;;;;-0.50;100.00;101601.41;1620846;87;21018;-66
2022/03/14 06:45:06;;;;;;;15.70;7.97;;;;;;;-0.52;100.00;101601.47;1643656;86;21419;-67
2022/03/14 06:47:34;;;;;;;39.70;22.70;;;;;;;-0.50;100.00;101603.59;1648611;87;21068;-66
2022/03/14 06:50:01;;;;;;;16.23;7.20;;;;;;;-0.40;100.00;101605.44;1648487;86;21518;-67
2022/03/14 06:52:28;;;;;;;12.47;6.57;;;;;;;-0.29;100.00;101610.31;1619501;87;21641;-66
2022/03/14 06:54:55;;;;;;;16.00;7.67;;;;;;;-0.29;100.00;101610.31;1598005;87;21132;-65
2022/03/14 06:57:22;;;;;;;13.10;6.83;;;;;;;-0.32;100.00;101619.73;1618897;87;21871;-64
2022/03/14 06:59:50;;;;;;;16.87;7.53;;;;;;;-0.34;100.00;101633.55;1647297;87;21073;-66
2022/03/14 07:02:17;;;;;;;17.80;8.27;;;;;;;-0.32;100.00;101629.03;1619350;87;21128;-66
2022/03/14 07:04:44;;;;;;;19.27;7.23;;;;;;;-0.29;100.00;101630.25;1620791;86;21110;-65
2022/03/14 07:07:13;;;;;;;19.13;8.53;;;;;;;-0.29;100.00;101637.75;1606790;89;21076;-64
2022/03/14 07:09:40;;;;;;;16.43;7.23;;;;;;;-0.32;100.00;101642.32;1641431;87;21787;-65
2022/03/14 07:12:11;;;;;;;14.77;7.03;;;;;;;-0.34;100.00;101642.38;1673634;84;21620;-65
2022/03/14 07:14:40;;;;;;;12.67;6.13;;;;;;;-0.37;100.00;101647.84;1674874;85;21015;-65
2022/03/14 07:17:07;;;;;;;12.53;6.20;;;;;;;-0.45;100.00;101656.58;1638954;86;21157;-65
2022/03/14 07:19:34;;;;;;;13.23;6.53;;;;;;;-0.53;100.00;101663.53;1659752;85;21035;-64
2022/03/14 07:22:03;;;;;;;12.40;6.87;;;;;;;-0.56;100.00;101664.97;1660703;86;21129;-66
2022/03/14 07:24:31;;;;;;;12.03;5.80;;;;;;;-0.53;100.00;101656.89;1656942;86;21571;-66
2022/03/14 07:26:58;;;;;;;16.00;8.60;;;;;;;-0.48;100.00;101660.23;1660032;86;21146;-65
2022/03/14 07:29:26;;;;;;;11.90;6.30;;;;;;;-0.41;100.00;101661.72;1675307;86;21063;-64
2022/03/14 07:31:54;;;;;;;10.30;6.00;;;;;;;-0.29;100.00;101666.13;1675450;86;21102;-67
2022/03/14 07:34:21;;;;;;;18.60;10.47;;;;;;;-0.23;100.00;101653.47;1675023;86;21056;-67
2022/03/14 07:36:48;;;;;;;12.27;6.13;;;;;;;-0.19;100.00;101667.50;1675059;86;21262;-67
2022/03/14 07:39:15;;;;;;;18.63;9.37;;;;;;;-0.14;100.00;101668.19;1658243;86;21115;-65
2022/03/14 07:41:43;;;;;;;16.17;6.57;;;;;;;-0.09;100.00;101669.30;1675725;85;21577;-65
2022/03/14 07:44:10;;;;;;;14.80;6.37;;;;;;;-0.07;100.00;101672.77;1674916;86;21599;-66
2022/03/14 07:46:38;;;;;;;13.70;5.80;;;;;;;-0.03;100.00;101681.89;1658245;84;21008;-65
2022/03/14 07:49:10;;;;;;;14.67;6.50;;;;;;;0.06;100.00;101693.09;1674845;85;21071;-68
2022/03/14 07:51:39;;;;;;;20.60;8.40;;;;;;;0.14;100.00;101695.84;1620307;87;21570;-66
2022/03/14 07:54:06;;;;;;;23.33;9.40;;;;;;;0.14;100.00;101701.16;1651205;87;21132;-66
2022/03/14 07:56:34;;;;;;;12.40;6.10;;;;;;;0.14;100.00;101706.92;1651554;87;21123;-66
2022/03/14 07:59:03;;;;;;;22.60;12.07;;;;;;;0.16;100.00;101711.27;1650982;87;21613;-66
2022/03/14 08:01:32;;;;;;;20.73;9.00;;;;;;;0.23;100.00;101709.23;1650750;85;21762;-65
2022/03/14 08:03:58;;;;;;;19.13;8.23;;;;;;;0.53;100.00;101704.41;1651325;87;21095;-66
2022/03/14 08:06:29;;;;;;;20.87;8.37;;;;;;;0.98;100.00;101700.27;1658111;85;21099;-68
2022/03/14 08:09:00;;;;;;;16.57;7.47;;;;;;;1.38;100.00;101701.98;1627952;86;21060;-65
2022/03/14 08:11:29;;;;;;;17.50;8.03;;;;;;;1.56;100.00;101706.03;1660615;86;21060;-65
2022/03/14 08:14:04;;;;;;;13.60;6.93;;;;;;;1.71;100.00;101707.98;1660978;86;21131;-65
2022/03/14 08:16:34;;;;;;;14.83;7.50;;;;;;;1.99;100.00;101716.00;1659826;86;21608;-67
2022/03/14 08:19:03;;;;;;;16.33;7.60;;;;;;;2.23;100.00;101715.23;1659722;86;21457;-66
2022/03/14 08:21:30;;;;;;;20.27;8.23;;;;;;;2.09;100.00;101718.14;1660041;85;21111;-64
2022/03/14 08:23:58;;;;;;;28.97;17.87;;;;;;;1.91;100.00;101716.34;1656972;86;21110;-65
2022/03/14 08:26:25;;;;;;;15.73;8.30;;;;;;;1.81;100.00;101713.76;1632363;88;21036;-65
2022/03/14 08:28:53;;;;;;;18.60;9.07;;;;;;;1.75;100.00;101711.37;1631936;88;21103;-67
2022/03/14 08:31:22;;;;;;;17.73;8.00;;;;;;;1.60;100.00;101716.97;1631860;88;21099;-65
2022/03/14 08:33:50;;;;;;;11.80;6.13;;;;;;;1.46;100.00;101714.94;1653944;86;21068;-65
2022/03/14 08:36:20;;;;;;;14.57;7.13;;;;;;;1.47;100.00;101718.88;1653245;86;21140;-64
2022/03/14 08:38:49;;;;;;;11.77;6.20;;;;;;;1.74;100.00;101713.17;1631299;88;21115;-65
2022/03/14 08:41:17;;;;;;;17.20;7.93;;;;;;;2.18;100.00;101707.93;1631477;88;21083;-66
2022/03/14 08:43:44;;;;;;;17.67;9.10;;;;;;;2.60;100.00;101709.38;1653540;86;21115;-66
2022/03/14 08:46:11;;;;;;;12.77;6.80;;;;;;;3.10;100.00;101699.66;1637388;86;22335;-65
2022/03/14 08:48:39;;;;;;;14.97;7.53;;;;;;;3.50;100.00;101697.50;1659618;86;21051;-66
2022/03/14 08:51:06;;;;;;;11.97;6.07;;;;;;;3.52;100.00;101701.80;1628816;86;21083;-65
2022/03/14 08:53:33;;;;;;;17.20;6.73;;;;;;;3.18;100.00;101706.80;1624883;86;21216;-65
2022/03/14 08:56:02;;;;;;;13.43;6.33;;;;;;;2.69;100.00;101710.72;1629729;86;21102;-66
2022/03/14 08:58:30;;;;;;;17.90;6.90;;;;;;;2.24;100.00;101699.16;1659971;86;21071;-66
2022/03/14 09:00:59;;;;;;;16.67;7.70;;;;;;;2.04;100.00;101693.48;1660693;86;21509;-65
2022/03/14 09:03:27;;;;;;;17.23;8.20;;;;;;;2.14;100.00;101695.20;1658482;86;21150;-66
2022/03/14 09:05:58;;;;;;;14.43;6.40;;;;;;;2.25;100.00;101696.89;1649246;85;21127;-66
2022/03/14 09:08:26;;;;;;;19.60;8.60;;;;;;;2.12;100.00;101697.09;1587933;90;21103;-66
2022/03/14 09:10:55;;;;;;;18.67;8.90;;;;;;;2.00;100.00;101685.69;1568191;90;21011;-65
2022/03/14 09:13:23;;;;;;;16.10;6.97;;;;;;;1.93;100.00;101691.82;1559105;92;21066;-67
2022/03/14 09:15:51;;;;;;;18.03;8.10;;;;;;;1.98;100.00;101692.91;1580039;90;21136;-65
2022/03/14 09:18:18;;;;;;;16.43;7.80;;;;;;;2.00;100.00;101688.36;1588893;90;21056;-66
2022/03/14 09:20:52;;;;;;;12.93;6.67;;;;;;;2.08;100.00;101681.70;1568351;90;21032;-67
2022/03/14 09:23:20;;;;;;;15.50;7.30;;;;;;;2.14;100.00;101680.53;1589119;90;21112;-67
2022/03/14 09:25:48;;;;;;;17.47;7.90;;;;;;;2.19;100.00;101682.98;1588695;90;21116;-67
2022/03/14 09:28:16;;;;;;;24.17;10.57;;;;;;;2.13;100.00;101682.83;1568173;90;21148;-67
2022/03/14 09:30:44;;;;;;;15.50;7.47;;;;;;;2.08;100.00;101686.19;1567910;90;21140;-67
2022/03/14 09:33:11;;;;;;;42.00;18.73;;;;;;;1.98;100.00;101681.76;1568893;90;21538;-67
2022/03/14 09:35:39;;;;;;;20.50;9.83;;;;;;;1.87;100.00;101691.63;1588863;90;21108;-66
2022/03/14 09:38:06;;;;;;;19.53;9.30;;;;;;;1.83;100.00;101690.05;1588966;90;21116;-66
2022/03/14 09:40:41;;;;;;;22.87;10.33;;;;;;;1.71;100.00;101687.98;1580545;90;21615;-66
2022/03/14 09:43:09;;;;;;;22.03;10.07;;;;;;;1.60;100.00;101687.64;1578904;91;21055;-65
2022/03/14 09:45:37;;;;;;;19.10;9.10;;;;;;;1.57;100.00;101681.11;1558810;91;21087;-65
2022/03/14 09:48:05;;;;;;;34.20;15.30;;;;;;;1.58;100.00;101678.38;1558539;91;21126;-67
2022/03/14 09:50:35;;;;;;;18.90;8.00;;;;;;;1.55;100.00;101675.84;1578129;91;21078;-67
2022/03/14 09:53:05;;;;;;;15.53;8.03;;;;;;;1.45;100.00;101679.88;1559938;92;21535;-66
2022/03/14 09:55:38;;;;;;;18.43;8.30;;;;;;;1.38;100.00;101681.99;1578452;90;21095;-67
2022/03/14 09:58:02;;;;;;;18.47;8.83;;;;;;;1.29;100.00;101681.06;1540266;92;21128;-65
2022/03/14 10:00:29;;;;;;;15.37;7.93;;;;;;;1.24;100.00;101679.96;1565128;90;21580;-66
2022/03/14 10:02:56;;;;;;;22.33;10.03;;;;;;;1.23;100.00;101670.22;1560434;92;22331;-66
2022/03/14 10:05:24;;;;;;;16.13;8.10;;;;;;;1.22;100.00;101667.18;1630410;85;21107;-67
2022/03/14 10:07:51;;;;;;;18.00;8.07;;;;;;;1.17;100.00;101672.30;1679360;85;21060;-66
2022/03/14 10:10:21;;;;;;;25.00;11.27;;;;;;;1.07;100.00;101670.54;1681631;85;21085;-66
2022/03/14 10:12:53;;;;;;;27.10;13.67;;;;;;;0.94;100.00;101671.09;1660914;85;21044;-66
2022/03/14 10:15:18;;;;;;;19.23;9.53;;;;;;;0.85;100.00;101662.20;1688779;84;21084;-66
2022/03/14 10:17:48;;;;;;;21.17;10.67;;;;;;;0.83;100.00;101668.50;1659944;86;21591;-65
2022/03/14 10:20:16;;;;;;;28.80;14.60;;;;;;;0.78;100.00;101670.06;1660001;86;21694;-66
2022/03/14 10:22:44;;;;;;;20.33;9.87;;;;;;;0.70;100.00;101664.20;1632859;86;21095;-67
2022/03/14 10:25:16;;;;;;;20.13;10.20;;;;;;;0.63;100.00;101658.27;1633797;86;21068;-66
2022/03/14 10:27:54;;;;;;;20.57;10.03;;;;;;;0.50;100.00;101658.42;1660819;85;21110;-66
2022/03/14 10:30:32;;;;;;;21.10;11.30;;;;;;;0.41;100.00;101658.80;1598434;87;21150;-70
2022/03/14 10:33:12;;;;;;;18.57;9.47;;;;;;;0.43;100.00;101662.28;1598579;88;21604;-66
2022/03/14 10:35:44;;;;;;;17.50;8.00;;;;;;;0.39;100.00;101657.56;1598021;90;21098;-66
2022/03/14 10:38:12;;;;;;;59.87;32.60;;;;;;;0.41;100.00;101655.70;1598066;90;21095;-66
2022/03/14 10:40:42;;;;;;;19.37;9.50;;;;;;;0.35;100.00;101651.95;1597644;90;21592;-66
2022/03/14 10:43:26;;;;;;;18.23;9.10;;;;;;;0.29;100.00;101654.41;1600152;88;21123;-65
2022/03/14 10:45:57;;;;;;;20.07;9.20;;;;;;;0.34;100.00;101648.91;1599113;90;21209;-69
2022/03/14 10:48:40;;;;;;;18.47;9.27;;;;;;;0.50;100.00;101651.77;1614143;89;21071;-65
2022/03/14 10:51:15;;;;;;;21.23;10.35;;;;;;;0.63;100.00;101644.95;1523158;94;21642;-69
2022/03/14 10:53:48;;;;;;;18.23;8.80;;;;;;;0.70;100.00;101641.09;1476914;96;21060;-66
2022/03/14 10:56:18;;;;;;;18.23;9.57;;;;;;;0.71;100.00;101637.51;1477623;96;21238;-65
2022/03/14 10:58:45;;;;;;;17.17;8.70;;;;;;;0.75;100.00;101638.23;1474410;97;21179;-66
2022/03/14 11:01:13;;;;;;;19.90;8.73;;;;;;;0.76;100.00;101639.95;1477358;97;21122;-65
2022/03/14 11:03:42;;;;;;;14.13;7.33;;;;;;;0.79;100.00;101629.16;1474263;96;21591;-65
2022/03/14 11:06:11;;;;;;;18.47;8.40;;;;;;;0.87;100.00;101624.84;1478031;97;21199;-66
2022/03/14 11:08:47;;;;;;;15.27;8.00;;;;;;;0.94;100.00;101623.63;1471631;97;22494;-64
2022/03/14 11:11:16;;;;;;;16.03;8.30;;;;;;;0.94;100.00;101623.15;1477199;96;21092;-65
2022/03/14 11:13:47;;;;;;;17.77;8.43;;;;;;;0.98;100.00;101620.36;1449494;98;21140;-65